Time;durP1;ratioP1;P1;durP2;ratioP2;P2;SDS_P1;SDS_P2;PMS_P1;PMS_P2;Temp;Humidity;BMP_temperature;BMP_pressure;BME280_temperature;BME280_humidity;BME280_pressure;Samples;Min_cycle;Max_cycle;Signal;HPM_P1;HPM_P2
2022/05/08 00:02:19;;;;;;;6.30;3.28;;;359.00;2329.60;;;;;;5050934;28;20036;-56
2022/05/08 00:04:50;;;;;;;3.70;2.78;;;359.00;2329.60;;;;;;5051089;28;20021;-56
2022/05/08 00:07:17;;;;;;;3.45;2.17;;;359.00;2329.60;;;;;;5050803;28;20033;-56
2022/05/08 00:09:43;;;;;;;4.68;2.80;;;359.00;2329.60;;;;;;5050874;28;20029;-56
2022/05/08 00:12:12;;;;;;;5.07;3.22;;;359.00;2329.60;;;;;;5050748;28;20024;-56
2022/05/08 00:14:39;;;;;;;4.05;2.38;;;358.80;2329.60;;;;;;5050673;28;20056;-56
2022/05/08 00:17:05;;;;;;;5.25;2.78;;;358.70;2329.60;;;;;;5050613;28;20032;-56
2022/05/08 00:19:31;;;;;;;4.43;2.83;;;358.70;2329.60;;;;;;5050731;28;20435;-56
2022/05/08 00:21:57;;;;;;;5.57;3.17;;;358.80;2329.60;;;;;;5050410;28;20025;-56
2022/05/08 00:24:23;;;;;;;6.15;3.45;;;358.80;2329.60;;;;;;5050786;28;20387;-56
2022/05/08 00:26:50;;;;;;;3.95;2.55;;;358.80;2329.60;;;;;;5050487;28;20028;-56
2022/05/08 00:29:16;;;;;;;4.78;2.75;;;358.80;2329.60;;;;;;5050391;28;20481;-56
2022/05/08 00:31:42;;;;;;;6.75;3.22;;;358.80;2329.60;;;;;;5050451;28;20033;-56
2022/05/08 00:34:09;;;;;;;6.05;3.28;;;358.80;2329.60;;;;;;5048846;28;20344;-56
2022/05/08 00:36:35;;;;;;;6.50;2.92;;;358.80;2329.60;;;;;;5045810;28;20063;-55
2022/05/08 00:39:01;;;;;;;4.55;2.90;;;358.80;2329.60;;;;;;5030476;28;20025;-56
2022/05/08 00:41:26;;;;;;;4.68;2.53;;;358.80;2329.60;;;;;;5030354;28;20032;-56
2022/05/08 00:43:52;;;;;;;6.20;3.50;;;358.80;2329.60;;;;;;5030420;28;20025;-55
2022/05/08 00:46:18;;;;;;;4.53;2.88;;;358.80;2329.60;;;;;;5030116;28;20035;-55
2022/05/08 00:48:44;;;;;;;5.05;2.97;;;358.70;2329.60;;;;;;5030351;28;20025;-55
2022/05/08 00:51:14;;;;;;;5.35;2.92;;;358.70;2329.60;;;;;;5030653;28;20351;-56
2022/05/08 00:53:41;;;;;;;4.95;3.17;;;358.70;2329.60;;;;;;5030180;28;20071;-55
2022/05/08 00:56:09;;;;;;;4.15;2.85;;;358.70;2329.60;;;;;;5030066;28;20030;-55
2022/05/08 00:58:37;;;;;;;5.03;3.05;;;358.80;2329.60;;;;;;5029966;28;20078;-56
2022/05/08 01:01:05;;;;;;;6.28;3.15;;;358.70;2329.60;;;;;;5030147;28;20061;-55
2022/05/08 01:03:31;;;;;;;5.82;3.45;;;358.70;2329.60;;;;;;5030214;28;20084;-56
2022/05/08 01:05:57;;;;;;;5.28;3.30;;;358.80;2329.60;;;;;;5030021;28;20029;-56
2022/05/08 01:08:25;;;;;;;4.40;3.10;;;358.80;2329.60;;;;;;5030146;28;20107;-55
2022/05/08 01:10:53;;;;;;;4.57;2.95;;;358.80;2329.60;;;;;;5030456;28;20073;-56
2022/05/08 01:13:19;;;;;;;4.90;3.22;;;358.90;2329.60;;;;;;5029983;28;20029;-55
2022/05/08 01:15:48;;;;;;;4.38;2.42;;;358.80;2329.60;;;;;;5030072;28;20508;-54
2022/05/08 01:18:16;;;;;;;6.22;2.75;;;358.90;2329.60;;;;;;5030010;28;20483;-56
2022/05/08 01:20:44;;;;;;;4.90;2.90;;;358.90;2329.60;;;;;;5030028;28;20045;-56
2022/05/08 01:23:15;;;;;;;4.20;2.58;;;358.90;2329.60;;;;;;5029956;28;20423;-56
2022/05/08 01:25:55;;;;;;;3.40;2.70;;;358.80;2329.60;;;;;;5030102;28;20053;-56
2022/05/08 01:28:23;;;;;;;4.47;2.80;;;358.80;2329.60;;;;;;5030072;28;20591;-59
2022/05/08 01:30:51;;;;;;;3.70;2.60;;;358.80;2329.60;;;;;;5030268;28;20108;-56
2022/05/08 01:33:17;;;;;;;4.97;2.70;;;358.80;2329.60;;;;;;5029623;28;20119;-56
2022/05/08 01:35:44;;;;;;;4.75;3.10;;;358.80;2329.60;;;;;;5029766;28;20060;-56
2022/05/08 01:38:12;;;;;;;4.15;2.63;;;358.80;2329.60;;;;;;5029488;28;20527;-56
2022/05/08 01:40:39;;;;;;;4.68;2.90;;;358.70;2329.60;;;;;;5029559;28;20038;-57
2022/05/08 01:43:05;;;;;;;4.25;2.88;;;358.70;2329.60;;;;;;5029742;28;20113;-55
2022/05/08 01:45:31;;;;;;;4.35;2.83;;;358.70;2329.60;;;;;;5032925;28;20083;-55
2022/05/08 01:50:42;;;;;;;5.60;3.20;;;358.70;2329.60;;;;;;5033892;28;20040;-55
2022/05/08 01:53:08;;;;;;;4.93;3.53;;;358.70;2329.60;;;;;;5033408;28;20097;-55
2022/05/08 01:55:35;;;;;;;6.55;3.17;;;358.50;2329.60;;;;;;5033707;28;20025;-56
2022/05/08 01:58:01;;;;;;;5.65;3.30;;;358.50;2329.60;;;;;;5033455;28;20105;-56
2022/05/08 02:00:28;;;;;;;4.38;2.95;;;358.50;2329.60;;;;;;5033417;28;20068;-56
2022/05/08 02:02:59;;;;;;;3.58;2.33;;;358.50;2329.60;;;;;;5033583;28;20026;-56
2022/05/08 02:05:25;;;;;;;4.20;3.03;;;358.40;2329.60;;;;;;5033338;28;20487;-56
2022/05/08 02:07:51;;;;;;;5.63;2.95;;;333.70;2329.60;;;;;;5033422;28;20025;-56
2022/05/08 02:10:18;;;;;;;4.15;2.60;;;358.40;2329.60;;;;;;5033210;28;20467;-56
2022/05/08 02:12:45;;;;;;;2.38;1.80;;;358.40;2329.60;;;;;;5033272;28;20026;-56
2022/05/08 02:15:12;;;;;;;4.10;2.42;;;333.70;2329.60;;;;;;5033422;28;20026;-56
2022/05/08 02:17:39;;;;;;;5.03;2.65;;;333.70;2329.60;;;;;;5031760;28;20025;-56
2022/05/08 02:20:06;;;;;;;4.00;2.33;;;333.70;2329.60;;;;;;5033151;28;20269;-55
2022/05/08 02:22:39;;;;;;;4.20;2.38;;;333.70;2329.60;;;;;;5033101;28;20104;-56
2022/05/08 02:25:07;;;;;;;4.07;2.83;;;333.70;2329.60;;;;;;5032803;28;20033;-56
2022/05/08 02:27:40;;;;;;;3.50;2.20;;;333.60;2329.60;;;;;;5033172;28;20048;-57
2022/05/08 02:30:08;;;;;;;4.35;2.60;;;333.50;2329.60;;;;;;5032819;28;20017;-56
2022/05/08 02:32:34;;;;;;;3.80;2.38;;;333.50;2329.60;;;;;;5032769;28;20033;-57
2022/05/08 02:35:00;;;;;;;5.38;2.38;;;333.70;2329.60;;;;;;5032622;28;20026;-56
2022/05/08 02:37:26;;;;;;;7.75;2.78;;;333.40;2329.60;;;;;;5032281;28;20045;-55
2022/05/08 02:39:53;;;;;;;5.78;2.80;;;333.30;2329.60;;;;;;5032664;28;20073;-56
2022/05/08 02:42:19;;;;;;;6.55;2.88;;;333.20;2329.60;;;;;;5032598;28;20452;-54
2022/05/08 02:44:44;;;;;;;7.78;3.92;;;333.20;2329.60;;;;;;5032835;28;20064;-55
2022/05/08 02:47:10;;;;;;;5.35;3.70;;;333.20;2329.60;;;;;;5032315;28;20018;-54
2022/05/08 02:49:36;;;;;;;7.13;3.83;;;333.00;2329.60;;;;;;5032476;28;20091;-56
2022/05/08 02:52:02;;;;;;;6.35;4.05;;;332.90;2329.60;;;;;;5032477;28;20176;-56
2022/05/08 02:54:27;;;;;;;8.68;3.33;;;332.80;2329.60;;;;;;5032198;28;20033;-54
2022/05/08 02:59:37;;;;;;;4.05;2.67;;;332.80;2329.60;;;;;;5032409;28;20095;-55
2022/05/08 03:02:03;;;;;;;3.65;2.75;;;332.90;2329.60;;;;;;5035020;28;20059;-57
2022/05/08 03:04:29;;;;;;;4.72;3.10;;;332.80;2329.60;;;;;;5041408;28;20540;-55
2022/05/08 03:06:55;;;;;;;3.95;2.50;;;332.80;2329.60;;;;;;5040885;28;20049;-55
2022/05/08 03:09:21;;;;;;;7.70;3.60;;;308.10;2304.00;;;;;;5042829;28;20119;-52
2022/05/08 03:11:46;;;;;;;3.65;2.30;;;332.80;2329.60;;;;;;5041357;28;20021;-54
2022/05/08 03:14:12;;;;;;;5.07;2.65;;;332.80;2329.60;;;;;;5041255;28;20061;-55
2022/05/08 03:16:38;;;;;;;5.63;2.85;;;332.80;2329.60;;;;;;5042381;28;20028;-54
2022/05/08 03:19:04;;;;;;;4.60;3.05;;;332.80;2329.60;;;;;;5040702;28;20028;-54
2022/05/08 03:21:30;;;;;;;5.70;2.72;;;332.80;2329.60;;;;;;5041338;28;20032;-55
2022/05/08 03:23:56;;;;;;;5.90;3.05;;;308.10;2304.00;;;;;;5042051;28;20101;-55
2022/05/08 03:26:22;;;;;;;5.40;2.80;;;308.00;2304.00;;;;;;5040462;28;20079;-54
2022/05/08 03:28:48;;;;;;;4.35;3.10;;;308.00;2304.00;;;;;;5041472;28;20531;-56
2022/05/08 03:31:14;;;;;;;4.60;2.55;;;308.10;2304.00;;;;;;5041939;28;20057;-54
2022/05/08 03:33:40;;;;;;;4.75;2.60;;;332.80;2329.60;;;;;;5039736;28;20083;-56
2022/05/08 03:36:10;;;;;;;7.30;3.63;;;332.90;2329.60;;;;;;5044948;28;20104;-55
2022/05/08 03:38:40;;;;;;;3.80;2.17;;;332.90;2329.60;;;;;;5039497;28;20041;-55
2022/05/08 03:41:07;;;;;;;4.80;2.13;;;332.90;2329.60;;;;;;5038257;28;20036;-56
2022/05/08 03:43:34;;;;;;;5.85;2.60;;;333.10;2329.60;;;;;;5040910;28;20024;-55
2022/05/08 03:45:59;;;;;;;4.55;3.10;;;333.10;2329.60;;;;;;5041309;28;20475;-56
2022/05/08 03:48:25;;;;;;;5.05;2.55;;;333.20;2329.60;;;;;;5039382;28;20120;-56
2022/05/08 03:50:51;;;;;;;6.45;3.08;;;333.30;2329.60;;;;;;5032774;28;20104;-55
2022/05/08 03:53:17;;;;;;;9.60;4.80;;;333.20;2329.60;;;;;;5031229;28;20032;-55
2022/05/08 03:55:43;;;;;;;7.45;4.40;;;333.30;2329.60;;;;;;5040815;28;20025;-56
2022/05/08 03:58:09;;;;;;;8.55;4.40;;;333.40;2329.60;;;;;;5039282;28;20072;-55
2022/05/08 04:00:34;;;;;;;10.15;5.50;;;333.50;2329.60;;;;;;5039567;28;20029;-56
2022/05/08 04:03:00;;;;;;;11.55;5.97;;;333.70;2329.60;;;;;;5040872;28;20057;-55
2022/05/08 04:05:27;;;;;;;10.20;5.38;;;333.70;2329.60;;;;;;5038545;28;20028;-55
2022/05/08 04:07:53;;;;;;;9.30;4.85;;;358.50;2329.60;;;;;;5039166;28;20073;-55
2022/05/08 04:10:18;;;;;;;6.45;4.35;;;358.50;2329.60;;;;;;5040261;28;20034;-55
2022/05/08 04:12:44;;;;;;;6.70;3.67;;;358.60;2329.60;;;;;;5038549;28;20451;-55
2022/05/08 04:17:54;;;;;;;6.20;3.13;;;358.90;2329.60;;;;;;5049060;28;20035;-55
2022/05/08 04:20:20;;;;;;;6.05;3.13;;;359.10;2329.60;;;;;;5036751;28;20037;-54
2022/05/08 04:25:30;;;;;;;9.23;4.88;;;384.00;2329.60;;;;;;5030915;28;20036;-55
2022/05/08 04:27:56;;;;;;;5.85;3.72;;;384.30;2329.60;;;;;;5030641;28;20029;-56
2022/05/08 04:30:22;;;;;;;5.53;3.72;;;384.50;2329.60;;;;;;5030699;28;20026;-56
2022/05/08 04:32:47;;;;;;;4.97;3.17;;;384.60;2329.60;;;;;;5030495;28;20033;-56
2022/05/08 04:35:13;;;;;;;5.32;3.90;;;384.90;2329.60;;;;;;5030425;28;20032;-55
2022/05/08 04:37:39;;;;;;;7.70;5.53;;;409.60;2355.20;;;;;;5030092;28;20046;-56
2022/05/08 04:40:06;;;;;;;10.93;5.95;;;384.80;2329.60;;;;;;5030658;28;20044;-53
2022/05/08 04:42:32;;;;;;;7.80;4.60;;;384.60;2329.60;;;;;;5030603;28;20045;-56
2022/05/08 04:44:59;;;;;;;8.07;4.60;;;384.60;2329.60;;;;;;5030372;28;20506;-56
2022/05/08 04:47:25;;;;;;;14.60;7.38;;;384.60;2329.60;;;;;;5030410;28;20029;-56
2022/05/08 04:49:51;;;;;;;11.80;6.55;;;384.50;2329.60;;;;;;5030308;28;20076;-55
2022/05/08 04:52:17;;;;;;;10.18;5.65;;;384.60;2329.60;;;;;;5030275;28;20376;-56
2022/05/08 04:54:43;;;;;;;9.05;3.80;;;409.80;2355.20;;;;;;5030407;28;20533;-54
2022/05/08 04:57:09;;;;;;;5.15;3.55;;;461.40;2304.00;;;;;;5030126;28;20017;-56
2022/05/08 04:59:34;;;;;;;5.00;3.13;;;512.60;1971.20;;;;;;5030322;28;20041;-56
2022/05/08 05:02:02;;;;;;;7.70;3.65;;;564.00;1792.00;;;;;;5030266;28;20026;-54
2022/05/08 05:04:28;;;;;;;5.72;4.53;;;615.00;1587.20;;;;;;5030079;28;20057;-56
2022/05/08 05:06:54;;;;;;;8.95;4.95;;;640.70;1459.20;;;;;;5030007;28;20025;-55
2022/05/08 05:09:20;;;;;;;8.70;5.45;;;666.20;1433.60;;;;;;5029935;28;20055;-56
2022/05/08 05:11:46;;;;;;;8.32;5.53;;;691.90;1356.80;;;;;;5029815;28;20086;-56
2022/05/08 05:14:11;;;;;;;9.52;5.82;;;691.40;1356.80;;;;;;5030168;28;20188;-56
2022/05/08 05:16:37;;;;;;;5.07;4.10;;;717.10;1331.20;;;;;;5029969;28;20025;-57
2022/05/08 05:19:04;;;;;;;4.88;3.80;;;742.50;1305.60;;;;;;5030654;28;20376;-57
2022/05/08 05:21:30;;;;;;;6.13;4.65;;;768.00;1280.00;;;;;;5033766;28;20041;-57
2022/05/08 05:23:56;;;;;;;5.43;4.18;;;793.80;1228.80;;;;;;5034199;28;20028;-57
2022/05/08 05:26:22;;;;;;;5.35;4.85;;;793.70;1203.20;;;;;;5034072;28;20114;-56
2022/05/08 05:28:48;;;;;;;5.80;4.55;;;794.20;1203.20;;;;;;5033897;28;20061;-57
2022/05/08 05:31:14;;;;;;;6.68;5.32;;;820.10;1100.80;;;;;;5033914;28;20104;-57
2022/05/08 05:33:40;;;;;;;9.02;5.68;;;819.60;1100.80;;;;;;5033816;28;20033;-56
2022/05/08 05:36:06;;;;;;;7.25;5.72;;;844.90;1100.80;;;;;;5033416;28;20029;-57
2022/05/08 05:38:33;;;;;;;8.13;6.35;;;845.30;1075.20;;;;;;5034072;28;20038;-56
2022/05/08 05:40:58;;;;;;;7.75;6.80;;;819.60;1100.80;;;;;;5033426;28;20435;-57
2022/05/08 05:43:24;;;;;;;8.52;6.20;;;845.50;1049.60;;;;;;5033699;28;20060;-58
2022/05/08 05:47:49;;;;;;;7.07;6.38;;;845.30;1075.20;;;;;;5033590;28;20033;-56
2022/05/08 05:48:37;;;;;;;8.68;6.78;;;870.80;1024.00;;;;;;5033361;28;20033;-58
2022/05/08 05:51:04;;;;;;;6.75;6.15;;;896.50;947.20;;;;;;5033286;28;20051;-58
2022/05/08 05:53:31;;;;;;;8.13;7.32;;;896.60;921.60;;;;;;5033478;28;20487;-57
2022/05/08 05:55:59;;;;;;;7.53;6.80;;;896.90;947.20;;;;;;5033276;28;20026;-57
2022/05/08 05:58:25;;;;;;;7.85;7.05;;;896.80;947.20;;;;;;5033325;28;20039;-58
2022/05/08 06:00:51;;;;;;;7.60;6.65;;;896.90;947.20;;;;;;5033485;28;20037;-58
2022/05/08 06:03:17;;;;;;;7.18;6.47;;;921.80;947.20;;;;;;5033337;28;20018;-57
2022/05/08 06:05:43;;;;;;;7.38;6.75;;;896.20;947.20;;;;;;5032956;28;20059;-59
2022/05/08 06:08:09;;;;;;;7.93;7.13;;;896.00;947.20;;;;;;5033176;28;20068;-58
2022/05/08 06:10:36;;;;;;;7.75;7.05;;;896.60;947.20;;;;;;5033493;28;20060;-58
2022/05/08 06:13:02;;;;;;;6.72;6.22;;;922.30;921.60;;;;;;5033319;28;20500;-58
2022/05/08 06:15:28;;;;;;;7.45;6.75;;;947.60;896.00;;;;;;5033017;28;20053;-58
2022/05/08 06:17:55;;;;;;;7.63;7.03;;;973.00;921.60;;;;;;5033203;28;20488;-58
2022/05/08 06:20:21;;;;;;;7.18;6.45;;;922.30;896.00;;;;;;5032925;28;20037;-58
2022/05/08 06:22:46;;;;;;;6.50;6.00;;;922.50;870.40;;;;;;5032809;28;20032;-58
2022/05/08 06:25:12;;;;;;;8.60;6.13;;;947.20;870.40;;;;;;5033239;28;20037;-58
2022/05/08 06:27:38;;;;;;;6.45;5.90;;;947.70;844.80;;;;;;5032727;28;20148;-58
2022/05/08 06:30:06;;;;;;;6.38;5.88;;;948.10;844.80;;;;;;5032925;28;20029;-59
2022/05/08 06:32:31;;;;;;;7.13;6.53;;;973.10;844.80;;;;;;5032807;28;20026;-58
2022/05/08 06:34:57;;;;;;;7.90;7.30;;;998.40;844.80;;;;;;5032559;28;20030;-59
2022/05/08 06:37:23;;;;;;;7.28;6.43;;;973.40;819.20;;;;;;5032524;28;20099;-59
2022/05/08 06:39:49;;;;;;;7.45;6.75;;;973.40;819.20;;;;;;5032696;28;20046;-58
2022/05/08 06:42:15;;;;;;;8.00;7.20;;;999.00;819.20;;;;;;5032773;28;20517;-59
2022/05/08 06:44:41;;;;;;;7.05;6.35;;;1024.20;793.60;;;;;;5032749;28;20028;-58
2022/05/08 06:47:07;;;;;;;8.13;7.38;;;973.10;844.80;;;;;;5032407;28;20037;-58
2022/05/08 06:49:32;;;;;;;8.95;8.15;;;972.90;844.80;;;;;;5032466;28;20499;-57
2022/05/08 06:51:58;;;;;;;8.18;7.38;;;973.30;819.20;;;;;;5029802;28;20101;-59
2022/05/08 06:54:26;;;;;;;7.75;7.03;;;973.20;819.20;;;;;;5031137;28;20045;-59
2022/05/08 06:56:53;;;;;;;7.32;6.65;;;947.80;844.80;;;;;;5030907;28;20029;-59
2022/05/08 07:02:04;;;;;;;8.32;7.57;;;947.30;896.00;;;;;;5030873;28;20032;-58
2022/05/08 07:04:29;;;;;;;8.07;7.22;;;947.40;896.00;;;;;;5033989;28;20430;-58
2022/05/08 07:06:55;;;;;;;9.10;8.23;;;922.30;896.00;;;;;;5034220;28;20042;-58
2022/05/08 07:09:21;;;;;;;9.52;8.75;;;973.70;844.80;;;;;;5030849;28;20030;-58
2022/05/08 07:11:49;;;;;;;8.43;7.72;;;972.90;896.00;;;;;;5030565;28;20041;-58
2022/05/08 07:14:16;;;;;;;8.77;8.13;;;973.40;870.40;;;;;;5030553;28;20032;-58
2022/05/08 07:16:42;;;;;;;8.65;7.85;;;998.90;844.80;;;;;;5031052;28;20029;-59
2022/05/08 07:19:08;;;;;;;9.45;8.65;;;998.80;870.40;;;;;;5032235;28;20022;-59
2022/05/08 07:21:33;;;;;;;10.02;9.13;;;1024.20;819.20;;;;;;5031888;28;20416;-59
2022/05/08 07:23:59;;;;;;;10.20;9.30;;;999.00;870.40;;;;;;5031897;28;20100;-59
2022/05/08 07:26:25;;;;;;;9.27;8.57;;;973.60;844.80;;;;;;5031790;28;20033;-58
2022/05/08 07:28:50;;;;;;;9.88;8.98;;;1024.60;819.20;;;;;;5031709;28;20360;-59
2022/05/08 07:31:17;;;;;;;8.88;8.13;;;1024.30;793.60;;;;;;5031540;28;20029;-59
2022/05/08 07:33:42;;;;;;;9.32;8.65;;;1024.60;768.00;;;;;;5031585;28;20033;-58
2022/05/08 07:36:14;;;;;;;8.02;7.43;;;1049.90;793.60;;;;;;5031028;28;20036;-58
2022/05/08 07:38:45;;;;;;;8.10;7.50;;;1050.40;742.40;;;;;;5031612;28;20045;-60
2022/05/08 07:41:13;;;;;;;8.40;7.60;;;1075.30;768.00;;;;;;5031468;28;20041;-60
2022/05/08 07:43:40;;;;;;;8.80;8.10;;;1049.70;793.60;;;;;;5030737;28;20028;-58
2022/05/08 07:46:06;;;;;;;9.50;8.70;;;1075.60;716.80;;;;;;5031524;28;20033;-59
2022/05/08 07:48:32;;;;;;;9.80;9.10;;;1050.40;742.40;;;;;;5031494;28;20088;-58
2022/05/08 07:51:00;;;;;;;9.40;8.60;;;1049.90;768.00;;;;;;5031398;28;20387;-59
2022/05/08 07:53:27;;;;;;;10.38;9.50;;;1050.40;768.00;;;;;;5031234;28;20471;-59
2022/05/08 07:55:53;;;;;;;9.43;8.57;;;1050.00;793.60;;;;;;5031396;28;20466;-59
2022/05/08 07:58:20;;;;;;;9.02;8.43;;;1049.90;793.60;;;;;;5031331;28;20075;-60
2022/05/08 08:00:46;;;;;;;9.38;8.68;;;1049.70;793.60;;;;;;5030846;28;20045;-59
2022/05/08 08:03:12;;;;;;;8.77;8.13;;;1049.70;793.60;;;;;;5030941;28;20025;-59
2022/05/08 08:05:38;;;;;;;7.47;6.97;;;1050.10;793.60;;;;;;5030845;28;20022;-59
2022/05/08 08:08:05;;;;;;;8.52;7.47;;;998.50;844.80;;;;;;5031052;28;20030;-59
2022/05/08 08:10:30;;;;;;;7.88;7.28;;;998.80;819.20;;;;;;5030852;28;20025;-59
2022/05/08 08:12:57;;;;;;;7.75;7.05;;;1024.30;819.20;;;;;;5030981;28;20029;-59
2022/05/08 08:15:23;;;;;;;8.25;7.50;;;1049.60;793.60;;;;;;5030992;28;20025;-59
2022/05/08 08:17:48;;;;;;;8.63;7.97;;;998.60;844.80;;;;;;5028454;28;20159;-59
2022/05/08 08:20:14;;;;;;;7.43;6.82;;;998.50;844.80;;;;;;5029111;28;20497;-59
2022/05/08 08:22:40;;;;;;;7.95;6.85;;;947.70;844.80;;;;;;5028944;28;20022;-58
2022/05/08 08:25:06;;;;;;;6.82;6.30;;;896.90;870.40;;;;;;5029017;28;20199;-58
2022/05/08 08:27:32;;;;;;;6.18;5.68;;;870.60;947.20;;;;;;5029219;28;20368;-58
2022/05/08 08:29:59;;;;;;;5.90;5.10;;;820.10;972.80;;;;;;5028634;28;20140;-58
2022/05/08 08:32:26;;;;;;;6.05;4.57;;;794.20;1049.60;;;;;;5028965;28;20029;-58
2022/05/08 08:34:53;;;;;;;8.02;4.68;;;768.60;1049.60;;;;;;5031438;28;20067;-63
2022/05/08 08:37:19;;;;;;;4.68;3.65;;;742.90;1100.80;;;;;;5028627;28;20064;-59
2022/05/08 08:39:45;;;;;;;5.32;4.18;;;742.60;1126.40;;;;;;5028910;28;20052;-64
2022/05/08 08:42:29;;;;;;;5.25;4.18;;;742.60;1126.40;;;;;;5029923;28;20029;-60
2022/05/08 08:48:09;;;;;;;5.70;4.28;;;717.70;1126.40;;;;;;5049083;28;20560;-62
2022/05/08 08:50:35;;;;;;;6.53;4.05;;;717.30;1126.40;;;;;;5048705;28;20029;-60
2022/05/08 08:53:03;;;;;;;5.05;4.47;;;717.10;1152.00;;;;;;5048832;28;20031;-60
2022/05/08 08:55:31;;;;;;;4.32;3.60;;;692.10;1126.40;;;;;;5047738;28;20109;-59
2022/05/08 08:57:56;;;;;;;4.18;3.63;;;691.40;1152.00;;;;;;5050488;28;20139;-60
2022/05/08 09:00:22;;;;;;;6.15;4.22;;;691.60;1177.60;;;;;;5050307;28;20514;-60
2022/05/08 09:02:50;;;;;;;5.93;4.13;;;691.70;1152.00;;;;;;5050229;28;20021;-59
2022/05/08 09:05:16;;;;;;;4.30;3.55;;;691.60;1152.00;;;;;;5049887;28;20036;-59
2022/05/08 09:07:42;;;;;;;6.35;4.10;;;691.30;1177.60;;;;;;5050006;28;20040;-59
2022/05/08 09:10:25;;;;;;;4.00;3.13;;;666.30;1177.60;;;;;;5049882;28;20375;-60
2022/05/08 09:12:56;;;;;;;5.13;3.80;;;691.30;1177.60;;;;;;5050405;28;20027;-59
2022/05/08 09:15:36;;;;;;;6.82;3.60;;;691.50;1152.00;;;;;;5050213;28;20039;-58
2022/05/08 09:18:06;;;;;;;5.43;3.58;;;691.80;1177.60;;;;;;5050099;28;20017;-59
2022/05/08 09:20:43;;;;;;;4.55;4.10;;;717.20;1177.60;;;;;;5049426;28;20471;-60
2022/05/08 09:23:10;;;;;;;3.95;3.50;;;691.80;1126.40;;;;;;5047363;28;20108;-60
2022/05/08 09:25:44;;;;;;;3.83;3.42;;;691.40;1152.00;;;;;;5048113;28;20112;-60
2022/05/08 09:28:14;;;;;;;5.32;3.90;;;692.00;1126.40;;;;;;5048064;28;20017;-60
2022/05/08 09:30:54;;;;;;;5.00;4.10;;;691.20;1152.00;;;;;;5048161;28;20021;-59
2022/05/08 09:33:31;;;;;;;4.45;3.67;;;691.40;1126.40;;;;;;5047722;28;20035;-59
2022/05/08 09:36:00;;;;;;;4.70;3.47;;;691.60;1100.80;;;;;;5035838;28;20021;-59
2022/05/08 09:38:44;;;;;;;4.85;3.40;;;691.20;1126.40;;;;;;5035519;28;20045;-59
2022/05/08 09:41:11;;;;;;;5.90;3.65;;;666.10;1100.80;;;;;;5028105;28;20038;-59
2022/05/08 09:43:37;;;;;;;5.47;3.90;;;666.00;1152.00;;;;;;5028077;28;20032;-60
2022/05/08 09:46:04;;;;;;;6.72;3.72;;;666.50;1152.00;;;;;;5028181;28;20021;-59
2022/05/08 09:48:33;;;;;;;4.90;3.17;;;666.20;1126.40;;;;;;5027640;28;20033;-60
2022/05/08 09:51:04;;;;;;;9.73;7.30;;;665.70;1126.40;;;;;;5028017;28;20055;-59
2022/05/08 09:53:31;;;;;;;7.22;3.88;;;666.00;1152.00;;;;;;5028096;28;20053;-60
2022/05/08 09:56:00;;;;;;;4.70;3.40;;;666.20;1152.00;;;;;;5027840;28;20026;-61
2022/05/08 09:58:26;;;;;;;5.13;3.55;;;665.70;1152.00;;;;;;5028070;28;20029;-60
2022/05/08 10:00:52;;;;;;;5.13;4.00;;;665.80;1152.00;;;;;;5027785;28;20120;-60
2022/05/08 10:03:19;;;;;;;3.78;3.03;;;666.00;1152.00;;;;;;5027753;28;20096;-60
2022/05/08 10:05:45;;;;;;;5.35;3.13;;;666.20;1152.00;;;;;;5029613;28;20033;-59
2022/05/08 10:08:15;;;;;;;5.00;2.80;;;666.30;1152.00;;;;;;5031804;28;20116;-60
2022/05/08 10:14:04;;;;;;;5.72;3.47;;;691.20;1126.40;;;;;;5033784;28;20095;-60
2022/05/08 10:17:01;;;;;;;3.85;3.45;;;666.10;1152.00;;;;;;5033192;28;20037;-61
2022/05/08 10:19:26;;;;;;;4.53;3.42;;;666.00;1177.60;;;;;;5032983;28;20060;-60
2022/05/08 10:22:09;;;;;;;4.43;3.28;;;640.80;1152.00;;;;;;5032907;28;20069;-61
2022/05/08 10:24:47;;;;;;;4.32;3.25;;;665.90;1203.20;;;;;;5033085;28;20813;-60
2022/05/08 10:27:28;;;;;;;4.90;3.53;;;666.00;1177.60;;;;;;5033090;28;20025;-59
2022/05/08 10:29:53;;;;;;;4.70;3.45;;;665.80;1177.60;;;;;;5033157;28;20475;-59
2022/05/08 10:32:31;;;;;;;5.05;3.50;;;666.00;1177.60;;;;;;5032753;28;20036;-60
2022/05/08 10:35:21;;;;;;;5.75;3.50;;;666.00;1177.60;;;;;;5032782;28;20440;-60
2022/05/08 10:38:02;;;;;;;5.28;4.60;;;640.90;1152.00;;;;;;5032289;28;20128;-60
2022/05/08 10:40:28;;;;;;;6.53;3.88;;;665.60;1203.20;;;;;;5032520;28;20431;-60
2022/05/08 10:42:55;;;;;;;5.05;3.03;;;640.90;1177.60;;;;;;5032590;28;20052;-61
2022/05/08 10:45:33;;;;;;;4.80;3.22;;;640.70;1203.20;;;;;;5032924;28;20025;-58
2022/05/08 10:48:13;;;;;;;4.22;2.90;;;665.70;1203.20;;;;;;5032520;28;20025;-60
2022/05/08 10:50:44;;;;;;;5.05;2.95;;;640.70;1177.60;;;;;;5032487;28;20036;-61
2022/05/08 10:53:41;;;;;;;4.25;3.38;;;640.60;1177.60;;;;;;5032486;28;20034;-60
2022/05/08 10:56:09;;;;;;;3.92;3.10;;;665.60;1203.20;;;;;;5030132;28;20040;-60
2022/05/08 10:58:38;;;;;;;4.72;3.67;;;665.60;1203.20;;;;;;5030291;28;20033;-60
2022/05/08 11:01:09;;;;;;;4.40;2.85;;;640.70;1177.60;;;;;;5030117;28;20100;-61
2022/05/08 11:03:38;;;;;;;4.38;3.17;;;665.70;1203.20;;;;;;5030134;28;20352;-59
2022/05/08 11:06:05;;;;;;;3.38;2.80;;;665.60;1203.20;;;;;;5029864;28;20072;-60
2022/05/08 11:08:36;;;;;;;6.60;4.30;;;665.60;1177.60;;;;;;5030193;28;20053;-59
2022/05/08 11:11:12;;;;;;;3.78;2.97;;;640.90;1177.60;;;;;;5030229;28;20036;-60
2022/05/08 11:13:48;;;;;;;4.93;3.33;;;665.60;1177.60;;;;;;5029932;28;20037;-61
2022/05/08 11:16:34;;;;;;;4.30;3.83;;;665.60;1203.20;;;;;;5029661;28;20057;-60
2022/05/08 11:19:04;;;;;;;4.30;2.72;;;665.60;1203.20;;;;;;5029727;28;20038;-60
2022/05/08 11:21:30;;;;;;;4.57;3.45;;;665.70;1203.20;;;;;;5029434;28;20037;-61
2022/05/08 11:23:56;;;;;;;5.95;3.40;;;665.60;1203.20;;;;;;5029698;28;20044;-61
2022/05/08 11:26:30;;;;;;;6.50;3.92;;;666.00;1203.20;;;;;;5030024;28;20069;-60
2022/05/08 11:28:58;;;;;;;4.40;3.38;;;666.00;1228.80;;;;;;5029613;28;20033;-61
2022/05/08 11:31:24;;;;;;;4.80;3.22;;;666.00;1203.20;;;;;;5029701;28;20064;-61
2022/05/08 11:36:41;;;;;;;6.22;3.35;;;665.90;1228.80;;;;;;5031561;28;20044;-60
2022/05/08 11:39:11;;;;;;;4.13;3.25;;;666.20;1203.20;;;;;;5031412;28;20535;-60
2022/05/08 11:41:50;;;;;;;6.60;4.25;;;666.10;1203.20;;;;;;5031274;28;20040;-60
2022/05/08 11:44:16;;;;;;;3.92;3.28;;;666.00;1203.20;;;;;;5031305;28;20541;-60
2022/05/08 11:46:49;;;;;;;3.92;3.50;;;691.20;1203.20;;;;;;5031502;28;20030;-62
2022/05/08 11:49:19;;;;;;;5.57;3.55;;;691.50;1203.20;;;;;;5031501;28;20104;-61
2022/05/08 11:51:48;;;;;;;5.13;2.90;;;691.20;1203.20;;;;;;5031103;28;20029;-64
2022/05/08 11:54:22;;;;;;;3.83;3.42;;;666.50;1203.20;;;;;;5031305;28;20415;-60
2022/05/08 11:56:51;;;;;;;4.88;3.15;;;666.20;1203.20;;;;;;5033628;28;20060;-61
2022/05/08 11:59:20;;;;;;;6.95;3.45;;;666.00;1203.20;;;;;;5041222;28;20096;-61
2022/05/08 12:01:50;;;;;;;4.32;3.33;;;666.40;1177.60;;;;;;5047151;28;20029;-60
2022/05/08 12:04:22;;;;;;;3.78;2.83;;;666.10;1203.20;;;;;;5048519;28;20016;-60
2022/05/08 12:07:05;;;;;;;4.28;3.28;;;666.50;1228.80;;;;;;5049040;28;20033;-60
2022/05/08 12:09:53;;;;;;;5.28;3.55;;;666.50;1177.60;;;;;;5049454;28;20475;-60
2022/05/08 12:12:36;;;;;;;4.18;3.08;;;666.30;1177.60;;;;;;5049345;28;20036;-60
2022/05/08 12:15:20;;;;;;;5.30;2.92;;;666.20;1203.20;;;;;;5049248;28;20051;-60
2022/05/08 12:17:49;;;;;;;4.15;2.88;;;666.20;1203.20;;;;;;5048472;28;20025;-60
2022/05/08 12:20:17;;;;;;;4.05;3.20;;;666.40;1203.20;;;;;;5049220;28;20063;-59
2022/05/08 12:22:46;;;;;;;5.72;3.47;;;666.30;1228.80;;;;;;5049166;28;20021;-62
2022/05/08 12:25:12;;;;;;;4.80;3.15;;;666.40;1203.20;;;;;;5049152;28;20021;-60
2022/05/08 12:27:39;;;;;;;4.18;2.83;;;666.50;1203.20;;;;;;5048832;28;20033;-60
2022/05/08 12:30:06;;;;;;;7.55;4.70;;;691.20;1177.60;;;;;;5048953;28;20513;-60
2022/05/08 12:32:35;;;;;;;3.67;2.75;;;666.40;1177.60;;;;;;5049310;28;20086;-60
2022/05/08 12:35:01;;;;;;;9.75;3.63;;;666.40;1177.60;;;;;;5049040;28;20467;-60
2022/05/08 12:37:27;;;;;;;4.78;3.45;;;666.10;1203.20;;;;;;5048395;28;20053;-61
2022/05/08 12:39:53;;;;;;;6.22;3.92;;;666.30;1177.60;;;;;;5048919;28;20039;-63
2022/05/08 12:42:19;;;;;;;5.75;3.80;;;666.00;1203.20;;;;;;5048242;28;20025;-61
2022/05/08 12:44:44;;;;;;;5.85;3.15;;;666.40;1177.60;;;;;;5048784;28;20129;-69
2022/05/08 12:47:11;;;;;;;3.50;2.92;;;691.20;1177.60;;;;;;5048775;28;20025;-60